sensor_id;sensor_type;location;lat;lon;timestamp;temperature;humidity
26212;DHT22;13951;49.516;6.094;2023-04-24T00:01:53;9.80;99.90
26212;DHT22;13951;49.516;6.094;2023-04-24T00:04:42;9.80;99.90
26212;DHT22;13951;49.516;6.094;2023-04-24T00:07:31;9.80;99.90
26212;DHT22;13951;49.516;6.094;2023-04-24T00:10:18;9.80;99.90
26212;DHT22;13951;49.516;6.094;2023-04-24T00:13:06;9.80;99.90
26212;DHT22;13951;49.516;6.094;2023-04-24T00:15:53;9.80;99.90
26212;DHT22;13951;49.516;6.094;2023-04-24T00:18:39;9.70;99.90
26212;DHT22;13951;49.516;6.094;2023-04-24T00:21:18;9.80;99.90
26212;DHT22;13951;49.516;6.094;2023-04-24T00:24:04;9.80;99.90
26212;DHT22;13951;49.516;6.094;2023-04-24T00:26:42;9.70;99.90
26212;DHT22;13951;49.516;6.094;2023-04-24T00:29:28;9.70;99.90
26212;DHT22;13951;49.516;6.094;2023-04-24T00:32:15;9.70;99.90
26212;DHT22;13951;49.516;6.094;2023-04-24T00:35:06;9.70;99.90
26212;DHT22;13951;49.516;6.094;2023-04-24T00:37:53;9.70;99.90
26212;DHT22;13951;49.516;6.094;2023-04-24T00:40:41;9.70;99.90
26212;DHT22;13951;49.516;6.094;2023-04-24T00:43:27;9.70;99.90
26212;DHT22;13951;49.516;6.094;2023-04-24T00:46:15;9.60;99.90
26212;DHT22;13951;49.516;6.094;2023-04-24T00:49:04;9.70;99.90
26212;DHT22;13951;49.516;6.094;2023-04-24T00:51:52;9.70;99.90
26212;DHT22;13951;49.516;6.094;2023-04-24T00:54:40;9.70;99.90
26212;DHT22;13951;49.516;6.094;2023-04-24T00:57:15;9.60;99.90
26212;DHT22;13951;49.516;6.094;2023-04-24T01:00:17;9.60;99.90
26212;DHT22;13951;49.516;6.094;2023-04-24T01:02:51;9.50;99.90
26212;DHT22;13951;49.516;6.094;2023-04-24T01:05:25;9.50;99.90
26212;DHT22;13951;49.516;6.094;2023-04-24T01:07:59;9.50;99.90
26212;DHT22;13951;49.516;6.094;2023-04-24T01:10:33;9.50;99.90
26212;DHT22;13951;49.516;6.094;2023-04-24T01:13:08;9.50;99.90
26212;DHT22;13951;49.516;6.094;2023-04-24T01:15:41;9.40;99.90
26212;DHT22;13951;49.516;6.094;2023-04-24T01:18:14;9.30;99.90
26212;DHT22;13951;49.516;6.094;2023-04-24T01:20:50;9.30;99.90
26212;DHT22;13951;49.516;6.094;2023-04-24T01:23:23;9.20;99.90
26212;DHT22;13951;49.516;6.094;2023-04-24T01:25:57;9.20;99.90
26212;DHT22;13951;49.516;6.094;2023-04-24T01:28:31;9.10;99.90
26212;DHT22;13951;49.516;6.094;2023-04-24T01:31:04;9.10;99.90
26212;DHT22;13951;49.516;6.094;2023-04-24T01:33:37;9.10;99.90
26212;DHT22;13951;49.516;6.094;2023-04-24T01:36:11;9.00;99.90
26212;DHT22;13951;49.516;6.094;2023-04-24T01:38:44;9.00;99.90
26212;DHT22;13951;49.516;6.094;2023-04-24T01:41:17;8.90;99.90
26212;DHT22;13951;49.516;6.094;2023-04-24T01:43:50;8.90;99.90
26212;DHT22;13951;49.516;6.094;2023-04-24T01:46:25;8.90;99.90
26212;DHT22;13951;49.516;6.094;2023-04-24T01:49:00;8.80;99.90
26212;DHT22;13951;49.516;6.094;2023-04-24T01:51:34;8.80;99.90
26212;DHT22;13951;49.516;6.094;2023-04-24T01:54:08;8.80;99.90
26212;DHT22;13951;49.516;6.094;2023-04-24T01:56:42;8.80;99.90
26212;DHT22;13951;49.516;6.094;2023-04-24T01:59:20;8.90;99.90
26212;DHT22;13951;49.516;6.094;2023-04-24T02:01:54;8.90;99.90
26212;DHT22;13951;49.516;6.094;2023-04-24T02:04:27;8.80;99.90
26212;DHT22;13951;49.516;6.094;2023-04-24T02:07:00;8.80;99.90
26212;DHT22;13951;49.516;6.094;2023-04-24T02:09:32;8.80;99.90
26212;DHT22;13951;49.516;6.094;2023-04-24T02:12:05;8.70;99.90
26212;DHT22;13951;49.516;6.094;2023-04-24T02:14:38;8.70;99.90
26212;DHT22;13951;49.516;6.094;2023-04-24T02:17:11;8.70;99.90
26212;DHT22;13951;49.516;6.094;2023-04-24T02:19:45;8.60;99.90
26212;DHT22;13951;49.516;6.094;2023-04-24T02:22:18;8.70;99.90
26212;DHT22;13951;49.516;6.094;2023-04-24T02:24:51;8.60;99.90
26212;DHT22;13951;49.516;6.094;2023-04-24T02:27:24;8.60;99.90
26212;DHT22;13951;49.516;6.094;2023-04-24T02:29:57;8.60;99.90
26212;DHT22;13951;49.516;6.094;2023-04-24T02:32:29;8.70;99.90
26212;DHT22;13951;49.516;6.094;2023-04-24T02:35:03;8.70;99.90
26212;DHT22;13951;49.516;6.094;2023-04-24T02:37:37;8.70;99.90
26212;DHT22;13951;49.516;6.094;2023-04-24T02:40:10;8.70;99.90
26212;DHT22;13951;49.516;6.094;2023-04-24T02:42:43;8.70;99.90
26212;DHT22;13951;49.516;6.094;2023-04-24T02:45:16;8.70;99.90
26212;DHT22;13951;49.516;6.094;2023-04-24T02:47:49;8.70;99.90
26212;DHT22;13951;49.516;6.094;2023-04-24T02:50:22;8.70;99.90
26212;DHT22;13951;49.516;6.094;2023-04-24T02:52:55;8.70;99.90
26212;DHT22;13951;49.516;6.094;2023-04-24T02:55:27;8.70;99.90
26212;DHT22;13951;49.516;6.094;2023-04-24T02:58:00;8.70;99.90
26212;DHT22;13951;49.516;6.094;2023-04-24T03:00:33;8.70;99.90
26212;DHT22;13951;49.516;6.094;2023-04-24T03:03:06;8.60;99.90
26212;DHT22;13951;49.516;6.094;2023-04-24T03:05:39;8.60;99.90
26212;DHT22;13951;49.516;6.094;2023-04-24T03:08:12;8.60;99.90
26212;DHT22;13951;49.516;6.094;2023-04-24T03:10:47;8.50;99.90
26212;DHT22;13951;49.516;6.094;2023-04-24T03:13:20;8.50;99.90
26212;DHT22;13951;49.516;6.094;2023-04-24T03:15:53;8.50;99.90
26212;DHT22;13951;49.516;6.094;2023-04-24T03:18:26;8.50;99.90
26212;DHT22;13951;49.516;6.094;2023-04-24T03:21:00;8.40;99.90
26212;DHT22;13951;49.516;6.094;2023-04-24T03:23:33;8.40;99.90
26212;DHT22;13951;49.516;6.094;2023-04-24T03:26:09;8.40;99.90
26212;DHT22;13951;49.516;6.094;2023-04-24T03:28:49;8.40;99.90
26212;DHT22;13951;49.516;6.094;2023-04-24T03:31:22;8.50;99.90
26212;DHT22;13951;49.516;6.094;2023-04-24T03:33:55;8.50;99.90
26212;DHT22;13951;49.516;6.094;2023-04-24T03:36:28;8.50;99.90
26212;DHT22;13951;49.516;6.094;2023-04-24T03:39:01;8.50;99.90
26212;DHT22;13951;49.516;6.094;2023-04-24T03:41:39;8.50;99.90
26212;DHT22;13951;49.516;6.094;2023-04-24T03:44:24;8.50;99.90
26212;DHT22;13951;49.516;6.094;2023-04-24T03:46:58;8.60;99.90
26212;DHT22;13951;49.516;6.094;2023-04-24T03:49:31;8.60;99.90
26212;DHT22;13951;49.516;6.094;2023-04-24T03:52:04;8.60;99.90
26212;DHT22;13951;49.516;6.094;2023-04-24T03:54:37;8.50;99.90
26212;DHT22;13951;49.516;6.094;2023-04-24T03:57:10;8.50;99.90
26212;DHT22;13951;49.516;6.094;2023-04-24T03:59:50;8.50;99.90
26212;DHT22;13951;49.516;6.094;2023-04-24T04:02:24;8.50;99.90
26212;DHT22;13951;49.516;6.094;2023-04-24T04:04:58;8.50;99.90
26212;DHT22;13951;49.516;6.094;2023-04-24T04:07:32;8.50;99.90
26212;DHT22;13951;49.516;6.094;2023-04-24T04:10:05;8.50;99.90
26212;DHT22;13951;49.516;6.094;2023-04-24T04:12:41;8.50;99.90
26212;DHT22;13951;49.516;6.094;2023-04-24T04:15:14;8.50;99.90
26212;DHT22;13951;49.516;6.094;2023-04-24T04:17:47;8.50;99.90
26212;DHT22;13951;49.516;6.094;2023-04-24T04:20:20;8.50;99.90
26212;DHT22;13951;49.516;6.094;2023-04-24T04:22:53;8.50;99.90
26212;DHT22;13951;49.516;6.094;2023-04-24T04:25:35;8.50;99.90
26212;DHT22;13951;49.516;6.094;2023-04-24T04:28:08;8.50;99.90
26212;DHT22;13951;49.516;6.094;2023-04-24T04:30:41;8.50;99.90
26212;DHT22;13951;49.516;6.094;2023-04-24T04:33:15;8.50;99.90
26212;DHT22;13951;49.516;6.094;2023-04-24T04:35:49;8.50;99.90
26212;DHT22;13951;49.516;6.094;2023-04-24T04:38:25;8.50;99.90
26212;DHT22;13951;49.516;6.094;2023-04-24T04:41:09;8.50;99.90
26212;DHT22;13951;49.516;6.094;2023-04-24T04:43:42;8.50;99.90
26212;DHT22;13951;49.516;6.094;2023-04-24T04:46:16;8.50;99.90
26212;DHT22;13951;49.516;6.094;2023-04-24T04:48:57;8.50;99.90
26212;DHT22;13951;49.516;6.094;2023-04-24T04:51:30;8.50;99.90
26212;DHT22;13951;49.516;6.094;2023-04-24T04:54:03;8.50;99.90
26212;DHT22;13951;49.516;6.094;2023-04-24T04:56:37;8.60;99.90
26212;DHT22;13951;49.516;6.094;2023-04-24T04:59:13;8.50;99.90
26212;DHT22;13951;49.516;6.094;2023-04-24T05:01:48;8.60;99.90
26212;DHT22;13951;49.516;6.094;2023-04-24T05:04:22;8.60;99.90
26212;DHT22;13951;49.516;6.094;2023-04-24T05:06:55;8.60;99.90
26212;DHT22;13951;49.516;6.094;2023-04-24T05:09:29;8.50;99.90
26212;DHT22;13951;49.516;6.094;2023-04-24T05:12:07;8.50;99.90
26212;DHT22;13951;49.516;6.094;2023-04-24T05:14:47;8.50;99.90
26212;DHT22;13951;49.516;6.094;2023-04-24T05:17:21;8.40;99.90
26212;DHT22;13951;49.516;6.094;2023-04-24T05:19:55;8.40;99.90
26212;DHT22;13951;49.516;6.094;2023-04-24T05:22:29;8.40;99.90
26212;DHT22;13951;49.516;6.094;2023-04-24T05:25:02;8.40;99.90
26212;DHT22;13951;49.516;6.094;2023-04-24T05:27:54;8.30;99.90
26212;DHT22;13951;49.516;6.094;2023-04-24T05:30:28;8.30;99.90
26212;DHT22;13951;49.516;6.094;2023-04-24T05:33:01;8.30;99.90
26212;DHT22;13951;49.516;6.094;2023-04-24T05:35:35;8.30;99.90
26212;DHT22;13951;49.516;6.094;2023-04-24T05:38:08;8.30;99.90
26212;DHT22;13951;49.516;6.094;2023-04-24T05:40:41;8.30;99.90
26212;DHT22;13951;49.516;6.094;2023-04-24T05:43:14;8.20;99.90
26212;DHT22;13951;49.516;6.094;2023-04-24T05:45:47;8.20;99.90
26212;DHT22;13951;49.516;6.094;2023-04-24T05:48:20;8.20;99.90
26212;DHT22;13951;49.516;6.094;2023-04-24T05:50:54;8.20;99.90
26212;DHT22;13951;49.516;6.094;2023-04-24T05:53:28;8.20;99.90
26212;DHT22;13951;49.516;6.094;2023-04-24T05:56:01;8.10;99.90
26212;DHT22;13951;49.516;6.094;2023-04-24T05:58:35;8.10;99.90
26212;DHT22;13951;49.516;6.094;2023-04-24T06:01:09;8.10;99.90
26212;DHT22;13951;49.516;6.094;2023-04-24T06:03:43;8.10;99.90
26212;DHT22;13951;49.516;6.094;2023-04-24T06:06:16;8.10;99.90
26212;DHT22;13951;49.516;6.094;2023-04-24T06:08:50;8.00;99.90
26212;DHT22;13951;49.516;6.094;2023-04-24T06:11:22;8.10;99.90
26212;DHT22;13951;49.516;6.094;2023-04-24T06:13:55;8.00;99.90
26212;DHT22;13951;49.516;6.094;2023-04-24T06:16:49;8.00;99.90
26212;DHT22;13951;49.516;6.094;2023-04-24T06:19:36;8.10;99.90
26212;DHT22;13951;49.516;6.094;2023-04-24T06:22:09;8.10;99.90
26212;DHT22;13951;49.516;6.094;2023-04-24T06:24:43;8.10;99.90
26212;DHT22;13951;49.516;6.094;2023-04-24T06:27:16;8.20;99.90
26212;DHT22;13951;49.516;6.094;2023-04-24T06:29:49;8.20;99.90
26212;DHT22;13951;49.516;6.094;2023-04-24T06:32:27;8.20;99.90
26212;DHT22;13951;49.516;6.094;2023-04-24T06:35:00;8.20;99.90
26212;DHT22;13951;49.516;6.094;2023-04-24T06:37:33;8.20;99.90
26212;DHT22;13951;49.516;6.094;2023-04-24T06:40:06;8.30;99.90
26212;DHT22;13951;49.516;6.094;2023-04-24T06:42:40;8.40;99.90
26212;DHT22;13951;49.516;6.094;2023-04-24T06:45:14;8.40;99.90
26212;DHT22;13951;49.516;6.094;2023-04-24T06:47:47;8.40;99.90
26212;DHT22;13951;49.516;6.094;2023-04-24T06:50:20;8.30;99.90
26212;DHT22;13951;49.516;6.094;2023-04-24T06:52:53;8.30;99.90
26212;DHT22;13951;49.516;6.094;2023-04-24T06:55:26;8.30;99.90
26212;DHT22;13951;49.516;6.094;2023-04-24T06:57:59;8.30;99.90
26212;DHT22;13951;49.516;6.094;2023-04-24T07:00:31;8.30;99.90
26212;DHT22;13951;49.516;6.094;2023-04-24T07:03:05;8.30;99.90
26212;DHT22;13951;49.516;6.094;2023-04-24T07:05:38;8.30;99.90
26212;DHT22;13951;49.516;6.094;2023-04-24T07:08:11;8.30;99.90
26212;DHT22;13951;49.516;6.094;2023-04-24T07:10:44;8.40;99.90
26212;DHT22;13951;49.516;6.094;2023-04-24T07:13:18;8.50;99.90
26212;DHT22;13951;49.516;6.094;2023-04-24T07:15:51;8.40;99.90
26212;DHT22;13951;49.516;6.094;2023-04-24T07:18:25;8.50;99.90
26212;DHT22;13951;49.516;6.094;2023-04-24T07:20:58;8.50;99.90
26212;DHT22;13951;49.516;6.094;2023-04-24T07:23:31;8.50;99.90
26212;DHT22;13951;49.516;6.094;2023-04-24T07:26:04;8.50;99.90
26212;DHT22;13951;49.516;6.094;2023-04-24T07:28:37;8.50;99.90
26212;DHT22;13951;49.516;6.094;2023-04-24T07:31:11;8.50;99.90
26212;DHT22;13951;49.516;6.094;2023-04-24T07:33:44;8.60;99.90
26212;DHT22;13951;49.516;6.094;2023-04-24T07:36:17;8.60;99.90
26212;DHT22;13951;49.516;6.094;2023-04-24T07:38:51;8.60;99.90
26212;DHT22;13951;49.516;6.094;2023-04-24T07:41:25;8.60;99.90
26212;DHT22;13951;49.516;6.094;2023-04-24T07:43:58;8.60;99.90
26212;DHT22;13951;49.516;6.094;2023-04-24T07:46:31;8.70;99.90
26212;DHT22;13951;49.516;6.094;2023-04-24T07:49:04;8.60;99.90
26212;DHT22;13951;49.516;6.094;2023-04-24T07:51:46;8.70;99.90
26212;DHT22;13951;49.516;6.094;2023-04-24T07:54:19;8.70;99.90
26212;DHT22;13951;49.516;6.094;2023-04-24T07:56:51;8.70;99.90
26212;DHT22;13951;49.516;6.094;2023-04-24T07:59:24;8.60;99.90
26212;DHT22;13951;49.516;6.094;2023-04-24T08:01:57;8.60;99.90
26212;DHT22;13951;49.516;6.094;2023-04-24T08:04:30;8.60;99.90
26212;DHT22;13951;49.516;6.094;2023-04-24T08:07:03;8.60;99.90
26212;DHT22;13951;49.516;6.094;2023-04-24T08:09:36;8.60;99.90
26212;DHT22;13951;49.516;6.094;2023-04-24T08:12:09;8.60;99.90
26212;DHT22;13951;49.516;6.094;2023-04-24T08:14:42;8.60;99.90
26212;DHT22;13951;49.516;6.094;2023-04-24T08:17:16;8.60;99.90
26212;DHT22;13951;49.516;6.094;2023-04-24T08:19:49;8.60;99.90
26212;DHT22;13951;49.516;6.094;2023-04-24T08:22:24;8.60;99.90
26212;DHT22;13951;49.516;6.094;2023-04-24T08:24:59;8.70;99.90
26212;DHT22;13951;49.516;6.094;2023-04-24T08:27:32;8.70;99.90
26212;DHT22;13951;49.516;6.094;2023-04-24T08:30:07;8.70;99.90
26212;DHT22;13951;49.516;6.094;2023-04-24T08:32:40;8.70;99.90
26212;DHT22;13951;49.516;6.094;2023-04-24T08:35:13;8.70;99.90
26212;DHT22;13951;49.516;6.094;2023-04-24T08:37:46;8.70;99.90
26212;DHT22;13951;49.516;6.094;2023-04-24T08:40:22;8.70;99.90
26212;DHT22;13951;49.516;6.094;2023-04-24T08:42:57;8.70;99.90
26212;DHT22;13951;49.516;6.094;2023-04-24T08:45:32;8.80;99.90
26212;DHT22;13951;49.516;6.094;2023-04-24T08:48:06;8.80;99.90
26212;DHT22;13951;49.516;6.094;2023-04-24T08:50:50;8.90;99.90
26212;DHT22;13951;49.516;6.094;2023-04-24T08:53:24;9.00;99.90
26212;DHT22;13951;49.516;6.094;2023-04-24T08:55:58;9.10;99.90
26212;DHT22;13951;49.516;6.094;2023-04-24T08:58:31;9.20;99.90
26212;DHT22;13951;49.516;6.094;2023-04-24T09:01:04;9.20;99.90
26212;DHT22;13951;49.516;6.094;2023-04-24T09:03:38;9.30;99.90
26212;DHT22;13951;49.516;6.094;2023-04-24T09:06:12;9.40;99.90
26212;DHT22;13951;49.516;6.094;2023-04-24T09:08:45;9.60;99.90
26212;DHT22;13951;49.516;6.094;2023-04-24T09:11:19;9.70;99.90
26212;DHT22;13951;49.516;6.094;2023-04-24T09:13:53;9.70;99.90
26212;DHT22;13951;49.516;6.094;2023-04-24T09:16:27;9.80;99.90
26212;DHT22;13951;49.516;6.094;2023-04-24T09:19:00;10.00;99.90
26212;DHT22;13951;49.516;6.094;2023-04-24T09:21:34;10.00;99.90
26212;DHT22;13951;49.516;6.094;2023-04-24T09:24:16;10.20;99.90
26212;DHT22;13951;49.516;6.094;2023-04-24T09:26:58;10.20;99.90
26212;DHT22;13951;49.516;6.094;2023-04-24T09:29:34;10.20;99.90
26212;DHT22;13951;49.516;6.094;2023-04-24T09:32:21;10.10;99.90
26212;DHT22;13951;49.516;6.094;2023-04-24T09:35:11;10.20;99.90
26212;DHT22;13951;49.516;6.094;2023-04-24T09:37:46;10.10;99.90
26212;DHT22;13951;49.516;6.094;2023-04-24T09:40:21;10.00;99.90
26212;DHT22;13951;49.516;6.094;2023-04-24T09:42:56;9.90;99.90
26212;DHT22;13951;49.516;6.094;2023-04-24T09:45:36;9.80;99.90
26212;DHT22;13951;49.516;6.094;2023-04-24T09:48:10;9.90;99.90
26212;DHT22;13951;49.516;6.094;2023-04-24T09:50:46;10.00;99.90
26212;DHT22;13951;49.516;6.094;2023-04-24T09:53:24;10.00;99.90
26212;DHT22;13951;49.516;6.094;2023-04-24T09:56:07;10.00;99.90
26212;DHT22;13951;49.516;6.094;2023-04-24T09:58:41;10.00;99.90
26212;DHT22;13951;49.516;6.094;2023-04-24T10:01:13;9.90;99.90
26212;DHT22;13951;49.516;6.094;2023-04-24T10:03:46;9.80;99.90
26212;DHT22;13951;49.516;6.094;2023-04-24T10:06:19;9.80;99.90
26212;DHT22;13951;49.516;6.094;2023-04-24T10:08:53;9.80;99.90
26212;DHT22;13951;49.516;6.094;2023-04-24T10:11:27;9.90;99.90
26212;DHT22;13951;49.516;6.094;2023-04-24T10:14:00;10.10;99.90
26212;DHT22;13951;49.516;6.094;2023-04-24T10:16:34;10.40;99.90
26212;DHT22;13951;49.516;6.094;2023-04-24T10:19:07;10.80;99.90
26212;DHT22;13951;49.516;6.094;2023-04-24T10:21:42;11.20;99.90
26212;DHT22;13951;49.516;6.094;2023-04-24T10:24:19;11.40;99.90
26212;DHT22;13951;49.516;6.094;2023-04-24T10:26:55;11.40;99.90
26212;DHT22;13951;49.516;6.094;2023-04-24T10:29:31;11.50;99.90
26212;DHT22;13951;49.516;6.094;2023-04-24T10:32:07;11.50;99.90
26212;DHT22;13951;49.516;6.094;2023-04-24T10:34:40;11.40;99.90
26212;DHT22;13951;49.516;6.094;2023-04-24T10:37:13;11.30;99.90
26212;DHT22;13951;49.516;6.094;2023-04-24T10:39:49;11.20;99.90
26212;DHT22;13951;49.516;6.094;2023-04-24T10:42:24;11.10;99.90
26212;DHT22;13951;49.516;6.094;2023-04-24T10:45:05;11.10;99.90
26212;DHT22;13951;49.516;6.094;2023-04-24T10:47:41;11.00;99.90
26212;DHT22;13951;49.516;6.094;2023-04-24T10:50:15;11.10;99.90
26212;DHT22;13951;49.516;6.094;2023-04-24T10:52:49;11.00;99.90
26212;DHT22;13951;49.516;6.094;2023-04-24T10:55:50;11.00;99.90
26212;DHT22;13951;49.516;6.094;2023-04-24T10:58:25;11.10;99.90
26212;DHT22;13951;49.516;6.094;2023-04-24T11:01:07;11.30;99.90
26212;DHT22;13951;49.516;6.094;2023-04-24T11:03:50;11.40;99.90
26212;DHT22;13951;49.516;6.094;2023-04-24T11:06:34;11.40;99.90
26212;DHT22;13951;49.516;6.094;2023-04-24T11:09:11;11.40;99.90
26212;DHT22;13951;49.516;6.094;2023-04-24T11:11:47;11.40;99.90
26212;DHT22;13951;49.516;6.094;2023-04-24T11:14:21;11.50;99.90
26212;DHT22;13951;49.516;6.094;2023-04-24T11:16:54;11.70;99.90
26212;DHT22;13951;49.516;6.094;2023-04-24T11:19:27;11.80;99.90
26212;DHT22;13951;49.516;6.094;2023-04-24T11:22:02;11.90;99.90
26212;DHT22;13951;49.516;6.094;2023-04-24T11:27:17;12.20;99.90
26212;DHT22;13951;49.516;6.094;2023-04-24T11:32:48;13.20;99.90
26212;DHT22;13951;49.516;6.094;2023-04-24T11:35:28;13.60;99.90
26212;DHT22;13951;49.516;6.094;2023-04-24T11:38:03;13.70;99.90
26212;DHT22;13951;49.516;6.094;2023-04-24T11:40:40;13.70;99.90
26212;DHT22;13951;49.516;6.094;2023-04-24T11:43:14;13.60;99.90
26212;DHT22;13951;49.516;6.094;2023-04-24T11:45:49;13.50;99.90
26212;DHT22;13951;49.516;6.094;2023-04-24T11:48:22;13.40;99.90
26212;DHT22;13951;49.516;6.094;2023-04-24T11:50:57;13.30;99.90
26212;DHT22;13951;49.516;6.094;2023-04-24T11:53:36;13.30;99.90
26212;DHT22;13951;49.516;6.094;2023-04-24T11:56:11;13.30;99.90
26212;DHT22;13951;49.516;6.094;2023-04-24T11:58:44;13.00;99.90
26212;DHT22;13951;49.516;6.094;2023-04-24T12:01:17;12.90;99.90
26212;DHT22;13951;49.516;6.094;2023-04-24T12:03:50;12.80;99.90
26212;DHT22;13951;49.516;6.094;2023-04-24T12:06:32;12.90;99.90
26212;DHT22;13951;49.516;6.094;2023-04-24T12:09:05;12.90;99.90
26212;DHT22;13951;49.516;6.094;2023-04-24T12:11:54;13.10;99.90
26212;DHT22;13951;49.516;6.094;2023-04-24T12:14:29;13.20;99.90
26212;DHT22;13951;49.516;6.094;2023-04-24T12:17:03;13.10;99.90
26212;DHT22;13951;49.516;6.094;2023-04-24T12:19:36;13.00;99.90
26212;DHT22;13951;49.516;6.094;2023-04-24T12:22:09;12.80;99.90
26212;DHT22;13951;49.516;6.094;2023-04-24T12:25:03;12.70;99.90
26212;DHT22;13951;49.516;6.094;2023-04-24T12:27:38;12.60;99.90
26212;DHT22;13951;49.516;6.094;2023-04-24T12:30:15;12.50;99.90
26212;DHT22;13951;49.516;6.094;2023-04-24T12:32:49;12.40;99.90
26212;DHT22;13951;49.516;6.094;2023-04-24T12:35:24;12.30;99.90
26212;DHT22;13951;49.516;6.094;2023-04-24T12:38:12;12.20;99.90
26212;DHT22;13951;49.516;6.094;2023-04-24T12:40:46;12.10;99.90
26212;DHT22;13951;49.516;6.094;2023-04-24T12:43:20;12.00;99.90
26212;DHT22;13951;49.516;6.094;2023-04-24T12:45:52;11.90;99.90
26212;DHT22;13951;49.516;6.094;2023-04-24T12:48:28;11.80;99.90
26212;DHT22;13951;49.516;6.094;2023-04-24T12:51:02;11.60;99.90
26212;DHT22;13951;49.516;6.094;2023-04-24T12:53:36;11.50;99.90
26212;DHT22;13951;49.516;6.094;2023-04-24T12:56:09;11.40;99.90
26212;DHT22;13951;49.516;6.094;2023-04-24T12:58:42;11.30;99.90
26212;DHT22;13951;49.516;6.094;2023-04-24T13:01:15;11.20;99.90
26212;DHT22;13951;49.516;6.094;2023-04-24T13:03:48;11.10;99.90
26212;DHT22;13951;49.516;6.094;2023-04-24T13:06:22;11.20;99.90
26212;DHT22;13951;49.516;6.094;2023-04-24T13:08:55;11.40;99.90
26212;DHT22;13951;49.516;6.094;2023-04-24T13:11:30;11.60;99.90
26212;DHT22;13951;49.516;6.094;2023-04-24T13:14:03;11.90;99.90
26212;DHT22;13951;49.516;6.094;2023-04-24T13:16:36;12.10;99.90
26212;DHT22;13951;49.516;6.094;2023-04-24T13:19:09;12.30;99.90
26212;DHT22;13951;49.516;6.094;2023-04-24T13:21:42;12.50;99.90
26212;DHT22;13951;49.516;6.094;2023-04-24T13:24:14;12.70;99.90
26212;DHT22;13951;49.516;6.094;2023-04-24T13:26:48;12.90;99.90
26212;DHT22;13951;49.516;6.094;2023-04-24T13:29:21;12.90;99.90
26212;DHT22;13951;49.516;6.094;2023-04-24T13:31:55;12.80;99.90
26212;DHT22;13951;49.516;6.094;2023-04-24T13:34:29;12.80;99.90
26212;DHT22;13951;49.516;6.094;2023-04-24T13:37:01;12.70;99.90
26212;DHT22;13951;49.516;6.094;2023-04-24T13:39:36;12.70;99.90
26212;DHT22;13951;49.516;6.094;2023-04-24T13:42:09;12.70;99.90
26212;DHT22;13951;49.516;6.094;2023-04-24T13:44:43;12.60;99.90
26212;DHT22;13951;49.516;6.094;2023-04-24T13:47:16;12.70;99.90
26212;DHT22;13951;49.516;6.094;2023-04-24T13:49:49;12.70;99.90
26212;DHT22;13951;49.516;6.094;2023-04-24T13:52:22;12.80;99.90
26212;DHT22;13951;49.516;6.094;2023-04-24T13:54:55;12.80;99.90
26212;DHT22;13951;49.516;6.094;2023-04-24T13:57:28;12.80;99.90
26212;DHT22;13951;49.516;6.094;2023-04-24T14:00:01;12.80;99.90
26212;DHT22;13951;49.516;6.094;2023-04-24T14:02:38;12.90;99.90
26212;DHT22;13951;49.516;6.094;2023-04-24T14:05:13;12.90;99.90
26212;DHT22;13951;49.516;6.094;2023-04-24T14:07:48;13.00;99.90
26212;DHT22;13951;49.516;6.094;2023-04-24T14:10:22;13.10;99.90
26212;DHT22;13951;49.516;6.094;2023-04-24T14:12:55;13.10;99.90
26212;DHT22;13951;49.516;6.094;2023-04-24T14:15:28;13.00;99.90
26212;DHT22;13951;49.516;6.094;2023-04-24T14:18:01;12.90;99.90
26212;DHT22;13951;49.516;6.094;2023-04-24T14:20:37;12.80;99.90
26212;DHT22;13951;49.516;6.094;2023-04-24T14:23:12;12.60;99.90
26212;DHT22;13951;49.516;6.094;2023-04-24T14:25:45;12.50;99.90
26212;DHT22;13951;49.516;6.094;2023-04-24T14:28:19;12.50;99.90
26212;DHT22;13951;49.516;6.094;2023-04-24T14:30:53;12.50;99.90
26212;DHT22;13951;49.516;6.094;2023-04-24T14:33:28;12.40;99.90
26212;DHT22;13951;49.516;6.094;2023-04-24T14:36:00;12.40;99.90
26212;DHT22;13951;49.516;6.094;2023-04-24T14:38:35;12.20;99.90
26212;DHT22;13951;49.516;6.094;2023-04-24T14:41:08;12.00;99.90
26212;DHT22;13951;49.516;6.094;2023-04-24T14:43:45;11.80;99.90
26212;DHT22;13951;49.516;6.094;2023-04-24T14:46:19;11.60;99.90
26212;DHT22;13951;49.516;6.094;2023-04-24T14:48:52;11.40;99.90
26212;DHT22;13951;49.516;6.094;2023-04-24T14:51:25;11.10;99.90
26212;DHT22;13951;49.516;6.094;2023-04-24T14:53:59;10.90;99.90
26212;DHT22;13951;49.516;6.094;2023-04-24T14:56:33;10.80;99.90
26212;DHT22;13951;49.516;6.094;2023-04-24T14:59:06;10.70;99.90
26212;DHT22;13951;49.516;6.094;2023-04-24T15:01:39;10.70;99.90
26212;DHT22;13951;49.516;6.094;2023-04-24T15:04:12;10.70;99.90
26212;DHT22;13951;49.516;6.094;2023-04-24T15:06:48;10.70;99.90
26212;DHT22;13951;49.516;6.094;2023-04-24T15:09:23;10.80;99.90
26212;DHT22;13951;49.516;6.094;2023-04-24T15:11:57;10.80;99.90
26212;DHT22;13951;49.516;6.094;2023-04-24T15:14:30;10.90;99.90
26212;DHT22;13951;49.516;6.094;2023-04-24T15:17:03;11.00;99.90
26212;DHT22;13951;49.516;6.094;2023-04-24T15:19:36;11.00;99.90
26212;DHT22;13951;49.516;6.094;2023-04-24T15:22:10;11.10;99.90
26212;DHT22;13951;49.516;6.094;2023-04-24T15:24:43;11.20;99.90
26212;DHT22;13951;49.516;6.094;2023-04-24T15:27:17;11.30;99.90
26212;DHT22;13951;49.516;6.094;2023-04-24T15:29:50;11.30;99.90
26212;DHT22;13951;49.516;6.094;2023-04-24T15:32:26;11.30;99.90
26212;DHT22;13951;49.516;6.094;2023-04-24T15:34:59;11.40;99.90
26212;DHT22;13951;49.516;6.094;2023-04-24T15:37:40;11.50;99.90
26212;DHT22;13951;49.516;6.094;2023-04-24T15:40:15;11.60;99.90
26212;DHT22;13951;49.516;6.094;2023-04-24T15:42:48;11.60;99.90
26212;DHT22;13951;49.516;6.094;2023-04-24T15:45:22;11.60;99.90
26212;DHT22;13951;49.516;6.094;2023-04-24T15:47:55;11.60;99.90
26212;DHT22;13951;49.516;6.094;2023-04-24T15:50:28;11.70;99.90
26212;DHT22;13951;49.516;6.094;2023-04-24T15:53:02;11.60;99.90
26212;DHT22;13951;49.516;6.094;2023-04-24T15:55:35;11.60;99.90
26212;DHT22;13951;49.516;6.094;2023-04-24T15:58:09;11.60;99.90
26212;DHT22;13951;49.516;6.094;2023-04-24T16:00:42;11.60;99.90
26212;DHT22;13951;49.516;6.094;2023-04-24T16:03:16;11.60;99.90
26212;DHT22;13951;49.516;6.094;2023-04-24T16:05:49;11.50;99.90
26212;DHT22;13951;49.516;6.094;2023-04-24T16:08:22;11.50;99.90
26212;DHT22;13951;49.516;6.094;2023-04-24T16:10:55;11.50;99.90
26212;DHT22;13951;49.516;6.094;2023-04-24T16:13:28;11.50;99.90
26212;DHT22;13951;49.516;6.094;2023-04-24T16:16:02;11.40;99.90
26212;DHT22;13951;49.516;6.094;2023-04-24T16:18:35;11.40;99.90
26212;DHT22;13951;49.516;6.094;2023-04-24T16:21:08;11.20;99.90
26212;DHT22;13951;49.516;6.094;2023-04-24T16:23:41;11.10;99.90
26212;DHT22;13951;49.516;6.094;2023-04-24T16:26:14;11.00;99.90
26212;DHT22;13951;49.516;6.094;2023-04-24T16:28:47;10.90;99.90
26212;DHT22;13951;49.516;6.094;2023-04-24T16:31:20;10.80;99.90
26212;DHT22;13951;49.516;6.094;2023-04-24T16:33:53;10.80;99.90
26212;DHT22;13951;49.516;6.094;2023-04-24T16:36:27;10.70;99.90